Hellam, Pennsylvania
Current Conditions -  °F | °C
As of 10:56 AM on Saturday 25 Oct 2014 (Local Time) from KMDT Reporting Station
Scattered Clouds Scattered Clouds  
Wind Chill: 59°   Ceiling: Unl
Heat Index: 59°   Visibility: 10mi
Dew Point: 43°   Wind: 5mph
Humidity: 55%   Direction: 290°WNW
Pressure: 29.89"   Gusts: NA
Location:  40.0152°N, 76.5974°W
Report Text: KMDT 251456Z 29004KT 10SM SCT250 15/06 A2989 RMK AO2 SLP122 T01500061 58011
Loading
Personal Weather Stations






























Interactive Weather Map
Tropical Storm Tracking
New forecast layout! Learn more

10-Day Weather Forecast

Advertisements
Track Severe Weather on mobile